Time;durP1;ratioP1;P1;durP2;ratioP2;P2;SDS_P1;SDS_P2;PMS_P1;PMS_P2;Temp;Humidity;BMP_temperature;BMP_pressure;BME280_temperature;BME280_humidity;BME280_pressure;Samples;Min_cycle;Max_cycle;Signal;HPM_P1;HPM_P2
2021/10/26 00:01:26;;;;;;;47.03;18.12;;;;;;;-0.92;66.87;101907.53;1739735;82;21205;-79
2021/10/26 00:04:31;;;;;;;45.00;18.52;;;;;;;-0.92;66.93;101904.84;1739906;82;21170;-75
2021/10/26 00:07:36;;;;;;;36.58;18.57;;;;;;;-0.92;66.33;101898.61;1738529;82;21355;-75
2021/10/26 00:10:41;;;;;;;44.95;19.17;;;;;;;-0.96;66.88;101900.53;1738596;82;21343;-75
2021/10/26 00:13:47;;;;;;;34.95;19.15;;;;;;;-0.94;69.21;101901.80;1738527;82;21355;-79
2021/10/26 00:16:52;;;;;;;44.85;19.67;;;;;;;-0.91;70.46;101901.22;1739178;82;21201;-75
2021/10/26 00:19:58;;;;;;;38.58;18.98;;;;;;;-0.85;71.23;101896.05;1725985;82;21307;-77
2021/10/26 00:23:08;;;;;;;35.60;18.73;;;;;;;-0.82;71.75;101891.43;1740118;82;21834;-75
2021/10/26 00:26:12;;;;;;;36.53;19.05;;;;;;;-0.80;70.90;101896.28;1739908;82;21894;-79
2021/10/26 00:29:18;;;;;;;40.55;18.95;;;;;;;-0.78;71.45;101900.24;1739972;82;21161;-79
2021/10/26 00:32:23;;;;;;;34.53;18.52;;;;;;;-0.75;71.98;101896.53;1739435;82;21292;-79
2021/10/26 00:35:30;;;;;;;42.08;18.42;;;;;;;-0.72;72.26;101891.04;1738609;82;21963;-75
2021/10/26 00:38:36;;;;;;;43.42;19.77;;;;;;;-0.70;72.15;101890.52;1739937;82;21319;-79
2021/10/26 00:41:43;;;;;;;36.35;19.00;;;;;;;-0.71;70.94;101894.13;1738518;82;21288;-79
2021/10/26 00:44:47;;;;;;;41.77;20.45;;;;;;;-0.69;71.56;101888.23;1738495;82;21176;-79
2021/10/26 00:47:53;;;;;;;38.17;18.50;;;;;;;-0.66;71.40;101886.73;1739917;82;21299;-76
2021/10/26 00:50:53;;;;;;;39.10;21.60;;;;;;;-0.65;71.34;101889.38;1732550;82;21744;-75
2021/10/26 00:54:00;;;;;;;45.20;20.77;;;;;;;-0.64;71.79;101886.22;1734227;82;21215;-75
2021/10/26 00:57:08;;;;;;;40.52;19.87;;;;;;;-0.61;71.77;101884.28;1735505;82;21332;-76
2021/10/26 01:00:14;;;;;;;41.02;18.48;;;;;;;-0.60;71.23;101883.80;1735590;82;21285;-79
2021/10/26 01:03:20;;;;;;;48.45;18.37;;;;;;;-0.61;70.42;101888.75;1735387;82;21907;-80
2021/10/26 01:06:25;;;;;;;46.05;19.32;;;;;;;-0.65;69.45;101892.53;1735585;82;21274;-79
2021/10/26 01:09:30;;;;;;;45.35;20.15;;;;;;;-0.71;68.14;101890.09;1735699;82;21314;-79
2021/10/26 01:12:35;;;;;;;52.80;20.30;;;;;;;-0.79;67.54;101894.00;1734946;82;21349;-79
2021/10/26 01:15:41;;;;;;;50.63;21.48;;;;;;;-0.84;67.50;101893.79;1734306;82;21764;-76
2021/10/26 01:18:49;;;;;;;44.20;21.02;;;;;;;-0.90;67.71;101891.34;1734958;82;21669;-79
2021/10/26 01:21:55;;;;;;;42.27;19.20;;;;;;;-0.94;68.78;101893.31;1735437;82;21285;-79
2021/10/26 01:25:00;;;;;;;46.60;18.95;;;;;;;-0.98;68.53;101891.69;1734045;82;21309;-75
2021/10/26 01:28:08;;;;;;;41.90;17.95;;;;;;;-1.03;68.11;101897.72;1733966;82;21328;-75
2021/10/26 01:31:12;;;;;;;38.63;19.70;;;;;;;-1.09;68.13;101906.00;1735521;82;22180;-75
2021/10/26 01:34:19;;;;;;;43.15;20.00;;;;;;;-1.13;68.48;101903.94;1734289;82;21356;-75
2021/10/26 01:37:24;;;;;;;50.40;20.15;;;;;;;-1.11;69.53;101903.86;1735218;82;21226;-79
2021/10/26 01:40:28;;;;;;;33.28;18.52;;;;;;;-1.10;69.45;101897.08;1735627;82;21285;-79
2021/10/26 01:43:34;;;;;;;41.63;19.00;;;;;;;-1.10;69.41;101904.27;1734468;82;21357;-79
2021/10/26 01:46:39;;;;;;;49.75;20.95;;;;;;;-1.12;69.27;101896.28;1735560;82;21878;-79
2021/10/26 01:49:44;;;;;;;37.08;20.15;;;;;;;-1.11;70.12;101898.49;1710413;82;21370;-79
2021/10/26 01:52:49;;;;;;;42.67;19.52;;;;;;;-1.09;71.12;101895.27;1732604;83;21788;-79
2021/10/26 01:55:53;;;;;;;55.95;23.67;;;;;;;-1.05;71.95;101896.89;1732773;83;21286;-79
2021/10/26 01:59:00;;;;;;;47.83;22.70;;;;;;;-1.02;73.05;101892.74;1732726;83;21329;-75
2021/10/26 02:02:07;;;;;;;46.68;22.40;;;;;;;-1.01;73.53;101890.45;1732702;83;21756;-75
2021/10/26 02:05:14;;;;;;;45.70;21.90;;;;;;;-1.00;73.84;101890.85;1732577;83;21373;-75
2021/10/26 02:08:19;;;;;;;43.08;21.12;;;;;;;-0.99;73.87;101887.22;1713834;83;21187;-75
2021/10/26 02:11:25;;;;;;;40.35;20.80;;;;;;;-1.00;73.03;101892.20;1732889;83;21278;-79
2021/10/26 02:14:30;;;;;;;42.50;21.45;;;;;;;-1.00;72.03;101894.02;1732703;83;21203;-75
2021/10/26 02:17:35;;;;;;;49.75;20.20;;;;;;;-1.04;71.57;101895.47;1732020;83;21338;-79
2021/10/26 02:20:39;;;;;;;37.50;19.23;;;;;;;-1.07;70.72;101894.75;1732588;83;21278;-76
2021/10/26 02:23:45;;;;;;;41.68;21.00;;;;;;;-1.08;69.93;101897.03;1731366;83;21851;-75
2021/10/26 02:26:54;;;;;;;45.45;22.32;;;;;;;-1.13;69.54;101909.75;1732610;83;21278;-78
2021/10/26 02:30:00;;;;;;;50.45;23.15;;;;;;;-1.19;69.86;101904.16;1732774;83;21179;-75
2021/10/26 02:33:05;;;;;;;39.83;19.50;;;;;;;-1.24;70.52;101902.61;1732677;83;21321;-75
2021/10/26 02:36:11;;;;;;;41.35;20.23;;;;;;;-1.24;70.58;101912.00;1732749;83;21727;-76
2021/10/26 02:39:15;;;;;;;38.10;20.02;;;;;;;-1.30;70.19;101899.23;1732685;83;21223;-75
2021/10/26 02:42:21;;;;;;;44.55;20.68;;;;;;;-1.35;70.13;101904.39;1732235;83;21325;-79
2021/10/26 02:45:31;;;;;;;44.38;21.87;;;;;;;-1.36;71.09;101910.23;1732722;83;21175;-79
2021/10/26 02:48:35;;;;;;;46.77;23.00;;;;;;;-1.35;71.41;101901.70;1714969;83;21733;-79
2021/10/26 02:51:40;;;;;;;48.68;23.87;;;;;;;-1.33;72.19;101906.06;1732161;81;21250;-80
2021/10/26 02:54:44;;;;;;;48.65;22.73;;;;;;;-1.31;73.02;101902.87;1735615;82;21326;-75
2021/10/26 02:57:51;;;;;;;49.85;22.62;;;;;;;-1.29;73.90;101905.01;1734155;82;21246;-75
2021/10/26 03:00:56;;;;;;;57.23;23.27;;;;;;;-1.25;74.69;101902.20;1735611;82;21305;-79
2021/10/26 03:04:03;;;;;;;46.50;21.25;;;;;;;-1.23;74.07;101901.19;1735629;82;21274;-79
2021/10/26 03:07:07;;;;;;;46.75;21.80;;;;;;;-1.22;74.02;101898.94;1735471;82;21305;-75
2021/10/26 03:10:14;;;;;;;52.75;23.77;;;;;;;-1.22;73.65;101888.64;1735695;82;21297;-75
2021/10/26 03:13:20;;;;;;;53.45;24.25;;;;;;;-1.23;73.30;101898.51;1734041;82;21198;-75
2021/10/26 03:16:26;;;;;;;51.70;24.32;;;;;;;-1.22;73.63;101906.99;1735602;82;21285;-75
2021/10/26 03:19:31;;;;;;;42.88;21.62;;;;;;;-1.23;73.58;101904.34;1734914;82;21357;-79
2021/10/26 03:22:37;;;;;;;61.80;25.65;;;;;;;-1.24;73.46;101907.98;1735004;82;21380;-76
2021/10/26 03:25:42;;;;;;;52.98;24.15;;;;;;;-1.26;73.18;101899.13;1735475;82;21293;-76
2021/10/26 03:28:49;;;;;;;55.10;25.72;;;;;;;-1.34;72.71;101902.98;1734192;82;21312;-75
2021/10/26 03:31:56;;;;;;;42.20;21.57;;;;;;;-1.43;72.26;101898.44;1733997;82;21305;-76
2021/10/26 03:35:03;;;;;;;54.03;25.97;;;;;;;-1.48;71.95;101903.12;1702931;82;21222;-79
2021/10/26 03:38:09;;;;;;;57.98;26.97;;;;;;;-1.53;71.98;101903.30;1734706;82;21308;-79
2021/10/26 03:41:14;;;;;;;70.47;28.80;;;;;;;-1.58;71.74;101897.25;1735634;82;21179;-79
2021/10/26 03:44:19;;;;;;;71.28;33.08;;;;;;;-1.61;71.68;101894.67;1735561;82;21338;-79
2021/10/26 03:47:25;;;;;;;61.48;24.50;;;;;;;-1.62;72.06;101898.30;1735369;82;22288;-75
2021/10/26 03:50:30;;;;;;;61.28;26.85;;;;;;;-1.64;72.13;101898.84;1735063;82;21301;-80
2021/10/26 03:53:35;;;;;;;53.70;24.85;;;;;;;-1.70;71.66;101890.53;1736152;82;21324;-76
2021/10/26 03:56:41;;;;;;;59.65;26.60;;;;;;;-1.71;71.55;101893.28;1739935;82;21279;-75
2021/10/26 03:59:47;;;;;;;53.73;23.35;;;;;;;-1.68;71.69;101886.47;1739767;82;21284;-79
2021/10/26 04:02:53;;;;;;;64.90;24.18;;;;;;;-1.71;71.48;101883.89;1740121;82;21311;-75
2021/10/26 04:06:04;;;;;;;60.15;25.65;;;;;;;-1.78;71.02;101883.27;1740047;82;21299;-76
2021/10/26 04:09:11;;;;;;;52.73;21.60;;;;;;;-1.80;70.88;101885.98;1740276;82;21826;-75
2021/10/26 04:12:23;;;;;;;55.52;24.12;;;;;;;-1.82;70.50;101890.55;1739927;82;21774;-79
2021/10/26 04:15:25;;;;;;;58.90;26.93;;;;;;;-1.84;70.17;101887.50;1740135;82;21833;-76
2021/10/26 04:18:30;;;;;;;54.58;23.38;;;;;;;-1.86;69.93;101884.02;1740014;82;21339;-75
2021/10/26 04:21:35;;;;;;;60.85;25.85;;;;;;;-1.88;69.92;101883.22;1739197;82;21304;-75
2021/10/26 04:24:40;;;;;;;63.28;27.50;;;;;;;-1.88;70.56;101885.44;1740190;82;21280;-79
2021/10/26 04:27:46;;;;;;;61.80;25.88;;;;;;;-1.84;71.80;101883.48;1739992;82;21320;-79
2021/10/26 04:30:51;;;;;;;62.10;24.75;;;;;;;-1.82;71.42;101891.89;1740025;82;21181;-79
2021/10/26 04:33:56;;;;;;;71.55;27.58;;;;;;;-1.84;71.46;101892.88;1739969;82;21339;-75
2021/10/26 04:37:00;;;;;;;63.90;24.92;;;;;;;-1.84;71.73;101892.40;1739777;82;21925;-79
2021/10/26 04:40:06;;;;;;;79.27;28.00;;;;;;;-1.76;72.47;101896.61;1740041;82;21335;-79
2021/10/26 04:43:11;;;;;;;65.92;26.70;;;;;;;-1.75;72.30;101892.98;1740005;82;21755;-75
2021/10/26 04:46:17;;;;;;;65.70;27.80;;;;;;;-1.76;72.31;101896.14;1740172;82;21276;-76
2021/10/26 04:49:21;;;;;;;55.17;25.08;;;;;;;-1.74;73.73;101892.95;1739949;82;21742;-75
2021/10/26 04:52:20;;;;;;;62.83;29.25;;;;;;;-1.66;73.94;101888.14;1739921;82;21280;-79
2021/10/26 04:55:26;;;;;;;38.30;18.75;;;;;;;-1.59;75.15;101898.19;1743070;82;21275;-79
2021/10/26 04:58:31;;;;;;;72.00;30.88;;;;;;;-1.51;75.78;101897.39;1716641;82;21296;-76
2021/10/26 05:01:36;;;;;;;65.03;27.73;;;;;;;-1.48;76.32;101895.08;1726331;82;21280;-75
2021/10/26 05:04:41;;;;;;;63.08;29.02;;;;;;;-1.40;76.68;101891.16;1732233;82;21153;-79
2021/10/26 05:07:50;;;;;;;70.47;31.90;;;;;;;-1.31;77.09;101898.84;1739258;82;21225;-79
2021/10/26 05:10:56;;;;;;;73.78;31.45;;;;;;;-1.22;77.22;101898.03;1732084;82;21669;-79
2021/10/26 05:14:01;;;;;;;59.45;27.95;;;;;;;-1.11;77.55;101909.23;1732378;81;21886;-79
2021/10/26 05:17:26;;;;;;;70.97;29.18;;;;;;;-1.01;78.09;101911.95;1736569;81;21557;-75
2021/10/26 05:20:51;;;;;;;76.22;33.55;;;;;;;-0.93;78.68;101909.83;1763177;81;21327;-75
2021/10/26 05:24:16;;;;;;;68.75;35.58;;;;;;;-0.83;79.41;101915.69;1730914;82;21238;-79
2021/10/26 05:27:25;;;;;;;75.83;36.53;;;;;;;-0.73;80.12;101914.83;1732342;82;21895;-75
2021/10/26 05:30:32;;;;;;;75.85;35.78;;;;;;;-0.60;80.50;101918.75;1730025;81;21307;-75
2021/10/26 05:33:36;;;;;;;70.00;33.78;;;;;;;-0.47;80.53;101917.72;1687920;85;21365;-75
2021/10/26 05:36:46;;;;;;;81.40;38.13;;;;;;;-0.34;80.39;101924.31;1675762;83;21312;-74
2021/10/26 05:39:53;;;;;;;67.00;32.15;;;;;;;-0.22;80.43;101920.23;1726923;82;21161;-75
2021/10/26 05:42:58;;;;;;;77.35;36.35;;;;;;;-0.11;80.87;101920.62;1722953;81;21298;-74
2021/10/26 05:46:03;;;;;;;77.35;35.38;;;;;;;-0.04;81.18;101918.07;1721285;82;21281;-74
2021/10/26 05:49:09;;;;;;;77.12;35.30;;;;;;;0.06;81.32;101921.22;1723733;81;21963;-75
2021/10/26 05:52:15;;;;;;;80.77;35.50;;;;;;;0.18;81.27;101913.91;1727929;81;21265;-74
2021/10/26 05:55:20;;;;;;;78.30;36.05;;;;;;;0.30;81.20;101916.04;1727723;81;21308;-75
2021/10/26 05:58:24;;;;;;;92.92;41.55;;;;;;;0.45;81.06;101919.83;1735330;81;21170;-75
2021/10/26 06:01:29;;;;;;;87.17;37.83;;;;;;;0.57;80.87;101930.03;1720377;81;21347;-75
2021/10/26 06:04:34;;;;;;;92.40;41.25;;;;;;;0.71;80.65;101926.20;1723634;81;21607;-75
2021/10/26 06:07:40;;;;;;;84.30;41.20;;;;;;;0.84;80.46;101920.20;1724337;81;21625;-74
2021/10/26 06:10:57;;;;;;;87.25;42.65;;;;;;;0.97;80.29;101919.53;1723358;82;21273;-75
2021/10/26 06:14:08;;;;;;;106.32;41.45;;;;;;;1.14;80.03;101928.14;1719594;81;21757;-76
2021/10/26 06:17:07;;;;;;;79.62;38.35;;;;;;;1.31;79.64;101924.58;1726546;81;21256;-75
2021/10/26 06:20:16;;;;;;;93.82;40.12;;;;;;;1.52;79.11;101930.72;1719775;81;21280;-75
2021/10/26 06:23:23;;;;;;;108.30;47.45;;;;;;;1.70;78.32;101929.77;1728498;81;21284;-75
2021/10/26 06:26:29;;;;;;;85.30;37.65;;;;;;;1.88;77.58;101921.16;1729026;81;21279;-75
2021/10/26 06:29:35;;;;;;;103.72;42.45;;;;;;;2.05;76.90;101918.92;1725637;81;21846;-75
2021/10/26 06:32:48;;;;;;;73.12;34.88;;;;;;;2.20;76.04;101911.34;1719474;81;21424;-75
2021/10/26 06:35:57;;;;;;;85.15;37.75;;;;;;;2.36;75.71;101918.14;1724341;81;21268;-75
2021/10/26 06:39:03;;;;;;;90.80;38.95;;;;;;;2.56;74.82;101920.60;1713636;81;21311;-75
2021/10/26 06:42:08;;;;;;;82.65;36.93;;;;;;;2.73;74.01;101918.77;1723232;81;21228;-75
2021/10/26 06:45:31;;;;;;;65.50;28.17;;;;;;;2.90;73.67;101927.28;1699352;82;21326;-76
2021/10/26 06:48:50;;;;;;;65.67;29.12;;;;;;;3.09;73.03;101914.44;1656951;82;21196;-75
2021/10/26 06:52:14;;;;;;;73.17;32.95;;;;;;;3.28;71.75;101915.11;1697282;82;21411;-79
2021/10/26 06:55:37;;;;;;;64.42;27.67;;;;;;;3.46;70.78;101906.87;1728583;80;21887;-80
2021/10/26 06:59:01;;;;;;;56.23;24.15;;;;;;;3.62;69.94;101911.73;1717804;81;21311;-80
2021/10/26 07:02:22;;;;;;;56.28;21.87;;;;;;;3.80;68.37;101906.56;1706363;82;21377;-76
2021/10/26 07:05:47;;;;;;;46.05;18.82;;;;;;;3.98;67.41;101902.34;1711144;82;21188;-76
2021/10/26 07:09:02;;;;;;;45.55;17.92;;;;;;;4.17;65.08;101908.83;1728276;81;21343;-78
2021/10/26 07:12:24;;;;;;;38.88;15.00;;;;;;;4.33;63.09;101905.08;1727259;82;21225;-79
2021/10/26 07:15:32;;;;;;;36.80;15.75;;;;;;;4.50;60.62;101905.83;1727460;81;21300;-79
2021/10/26 07:18:38;;;;;;;34.43;14.20;;;;;;;4.61;59.20;101902.83;1721504;81;21303;-79
2021/10/26 07:21:44;;;;;;;27.65;13.58;;;;;;;4.75;57.56;101904.64;1731130;81;21885;-79
2021/10/26 07:24:57;;;;;;;25.60;13.70;;;;;;;4.87;56.14;101906.53;1701359;82;21268;-79
2021/10/26 07:28:03;;;;;;;18.20;10.50;;;;;;;4.96;55.04;101901.48;1727777;81;21170;-75
2021/10/26 07:31:09;;;;;;;25.60;12.63;;;;;;;5.08;53.83;101904.72;1724964;81;21352;-79
2021/10/26 07:34:14;;;;;;;22.60;11.83;;;;;;;5.20;53.16;101907.98;1729749;82;21155;-78
2021/10/26 07:37:28;;;;;;;18.57;10.65;;;;;;;5.30;52.43;101910.45;1731549;82;21263;-79
2021/10/26 07:40:31;;;;;;;19.60;10.15;;;;;;;5.42;50.71;101910.61;1729247;81;21214;-78
2021/10/26 07:43:55;;;;;;;26.82;10.82;;;;;;;5.47;49.95;101902.53;1729852;82;21304;-79
2021/10/26 07:47:02;;;;;;;17.92;8.90;;;;;;;5.55;49.86;101898.81;1732100;81;21343;-79
2021/10/26 07:50:07;;;;;;;15.70;7.75;;;;;;;5.63;49.07;101899.62;1736672;81;21281;-79
2021/10/26 07:53:13;;;;;;;19.35;7.40;;;;;;;5.74;48.12;101897.52;1722910;81;21283;-78
2021/10/26 07:56:23;;;;;;;17.87;7.87;;;;;;;5.80;47.35;101902.05;1724061;81;21157;-76
2021/10/26 07:59:29;;;;;;;13.18;7.05;;;;;;;5.90;46.75;101892.77;1730239;82;21753;-76
2021/10/26 08:02:35;;;;;;;12.28;6.33;;;;;;;5.98;45.99;101892.28;1728109;81;21284;-76
2021/10/26 08:05:53;;;;;;;17.77;6.65;;;;;;;6.03;45.41;101895.54;1699660;81;21327;-75
2021/10/26 08:08:58;;;;;;;12.73;5.53;;;;;;;6.12;45.79;101896.25;1724655;82;21348;-76
2021/10/26 08:12:04;;;;;;;12.07;4.95;;;;;;;6.21;45.37;101894.23;1720176;81;21563;-76
2021/10/26 08:15:10;;;;;;;10.95;4.62;;;;;;;6.29;44.37;101892.30;1723694;81;21258;-76
2021/10/26 08:18:16;;;;;;;12.68;5.47;;;;;;;6.34;43.65;101887.41;1722062;81;21301;-75
2021/10/26 08:21:22;;;;;;;11.35;5.72;;;;;;;6.38;43.52;101892.51;1723971;82;21261;-76
2021/10/26 08:24:30;;;;;;;12.90;5.97;;;;;;;6.41;43.32;101890.08;1722531;82;21209;-76
2021/10/26 08:27:35;;;;;;;11.38;5.78;;;;;;;6.44;43.47;101895.27;1714149;82;21289;-76
2021/10/26 08:30:48;;;;;;;9.93;5.50;;;;;;;6.50;43.87;101887.19;1683576;83;21735;-76
2021/10/26 08:34:19;;;;;;;16.73;5.85;;;;;;;6.56;43.64;101890.31;1681864;83;21189;-76
2021/10/26 08:37:18;;;;;;;15.72;7.28;;;;;;;6.60;43.68;101890.47;1700857;82;21223;-76
2021/10/26 08:40:27;;;;;;;11.40;5.35;;;;;;;6.65;43.69;101888.77;1705380;82;21282;-76
2021/10/26 08:43:32;;;;;;;22.90;5.53;;;;;;;6.70;43.02;101892.02;1675129;85;21180;-79
2021/10/26 08:46:37;;;;;;;13.38;5.35;;;;;;;6.73;43.04;101886.83;1698815;83;21286;-76
2021/10/26 08:49:51;;;;;;;13.60;6.30;;;;;;;6.76;42.83;101891.56;1708392;83;21675;-79
2021/10/26 08:52:56;;;;;;;15.53;6.35;;;;;;;6.76;42.75;101888.84;1721044;82;21319;-79
2021/10/26 08:56:20;;;;;;;17.70;7.17;;;;;;;6.76;42.75;101887.48;1721668;82;21356;-79
2021/10/26 08:59:30;;;;;;;13.38;7.15;;;;;;;6.75;43.11;101885.75;1724503;81;21363;-79
2021/10/26 09:02:44;;;;;;;16.23;7.00;;;;;;;6.78;43.22;101881.45;1727357;82;21177;-79
2021/10/26 09:05:55;;;;;;;15.00;6.22;;;;;;;6.81;43.45;101884.42;1721344;81;21877;-76
2021/10/26 09:09:02;;;;;;;17.12;7.35;;;;;;;6.85;43.24;101879.14;1730082;81;21307;-76
2021/10/26 09:19:28;;;;;;;14.78;5.97;;;;;;;6.90;42.87;101872.36;1710038;81;21184;-76
2021/10/26 09:22:37;;;;;;;12.82;5.83;;;;;;;6.94;43.13;101869.42;1700127;82;21954;-76
2021/10/26 09:25:44;;;;;;;24.18;6.03;;;;;;;7.01;42.93;101866.60;1705988;82;21311;-76
2021/10/26 09:29:01;;;;;;;12.98;5.47;;;;;;;7.06;42.71;101863.08;1714596;82;21220;-80
2021/10/26 09:32:23;;;;;;;12.10;5.42;;;;;;;7.13;42.33;101865.69;1704366;82;21263;-76
2021/10/26 09:35:29;;;;;;;12.43;4.55;;;;;;;7.18;42.17;101858.05;1711092;82;21325;-76
2021/10/26 09:38:34;;;;;;;11.50;4.95;;;;;;;7.22;42.13;101851.88;1713213;82;22273;-80
2021/10/26 09:41:44;;;;;;;10.88;5.60;;;;;;;7.22;41.99;101855.97;1711344;82;22169;-79
2021/10/26 09:45:01;;;;;;;11.65;4.87;;;;;;;7.22;42.07;101847.80;1711087;83;21727;-76
2021/10/26 09:48:20;;;;;;;14.23;4.85;;;;;;;7.23;42.03;101843.59;1711012;83;21284;-80
2021/10/26 09:51:32;;;;;;;12.85;5.47;;;;;;;7.26;42.24;101841.14;1707913;82;21233;-76
2021/10/26 09:54:35;;;;;;;12.75;5.22;;;;;;;7.29;42.14;101837.70;1735183;81;21286;-76
2021/10/26 09:57:42;;;;;;;9.73;4.97;;;;;;;7.32;41.69;101833.86;1736831;81;21295;-76
2021/10/26 10:00:47;;;;;;;10.88;5.67;;;;;;;7.30;41.77;101831.26;1722155;83;21280;-77
2021/10/26 10:03:52;;;;;;;22.05;5.67;;;;;;;7.35;41.27;101833.63;1721832;81;21333;-77
2021/10/26 10:07:00;;;;;;;24.55;6.87;;;;;;;7.37;41.36;101831.64;1721144;81;21822;-80
2021/10/26 10:10:15;;;;;;;13.60;5.22;;;;;;;7.39;41.36;101825.11;1692609;83;21170;-76
2021/10/26 10:13:21;;;;;;;14.03;6.50;;;;;;;7.41;41.25;101829.92;1693646;84;21345;-76
2021/10/26 10:16:28;;;;;;;14.25;6.12;;;;;;;7.39;40.69;101821.52;1686641;83;21171;-76
2021/10/26 10:19:28;;;;;;;17.12;5.87;;;;;;;7.34;40.65;101812.81;1695218;82;21282;-79
2021/10/26 10:22:37;;;;;;;12.20;5.35;;;;;;;7.32;41.04;101812.08;1694326;82;21312;-80
2021/10/26 10:25:42;;;;;;;12.58;5.83;;;;;;;7.36;41.18;101809.00;1694407;83;21234;-79
2021/10/26 10:28:53;;;;;;;9.08;4.50;;;;;;;7.40;41.12;101802.83;1729514;82;21283;-80
2021/10/26 10:31:58;;;;;;;10.75;4.67;;;;;;;7.41;41.41;101791.81;1730316;81;21934;-80
2021/10/26 10:35:07;;;;;;;11.08;4.87;;;;;;;7.45;40.90;101793.81;1729007;81;21209;-80
2021/10/26 10:38:13;;;;;;;12.60;5.15;;;;;;;7.50;40.33;101788.87;1737429;81;21188;-80
2021/10/26 10:41:38;;;;;;;16.93;6.28;;;;;;;7.53;40.50;101787.73;1718177;82;21173;-76
2021/10/26 10:44:44;;;;;;;13.08;6.42;;;;;;;7.54;40.63;101777.25;1722868;82;21767;-77
2021/10/26 10:47:49;;;;;;;18.73;5.42;;;;;;;7.55;40.52;101771.67;1723781;81;21342;-81
2021/10/26 10:50:54;;;;;;;10.45;5.40;;;;;;;7.56;40.23;101773.40;1718766;81;21269;-80
2021/10/26 10:54:01;;;;;;;14.35;5.78;;;;;;;7.58;40.37;101771.94;1713252;82;21316;-77
2021/10/26 10:57:30;;;;;;;15.75;6.25;;;;;;;7.59;40.40;101766.36;1729838;82;21311;-77
2021/10/26 11:00:39;;;;;;;12.03;4.80;;;;;;;7.62;40.36;101766.59;1732341;81;21482;-76
2021/10/26 11:03:44;;;;;;;11.28;6.50;;;;;;;7.62;40.14;101754.34;1723857;82;21279;-81
2021/10/26 11:06:55;;;;;;;13.18;5.67;;;;;;;7.58;40.06;101756.46;1721433;82;21997;-80
2021/10/26 11:10:00;;;;;;;13.55;6.60;;;;;;;7.57;40.16;101752.48;1720693;82;21329;-77
2021/10/26 11:13:09;;;;;;;12.40;6.28;;;;;;;7.59;39.86;101750.52;1732308;82;21313;-80
2021/10/26 11:16:19;;;;;;;15.60;6.27;;;;;;;7.60;39.78;101745.44;1732043;82;21966;-77
2021/10/26 11:19:50;;;;;;;22.98;6.67;;;;;;;7.62;39.87;101743.45;1733676;82;21353;-80
2021/10/26 11:23:15;;;;;;;13.13;6.42;;;;;;;7.65;39.81;101733.68;1730664;82;21360;-77
2021/10/26 11:26:42;;;;;;;16.73;6.42;;;;;;;7.67;39.69;101733.08;1724402;83;21284;-80
2021/10/26 11:29:48;;;;;;;15.48;6.42;;;;;;;7.70;39.28;101732.81;1725493;83;21332;-76
2021/10/26 11:32:53;;;;;;;18.80;7.35;;;;;;;7.72;38.99;101724.54;1725697;83;21906;-80
2021/10/26 11:36:08;;;;;;;18.90;7.25;;;;;;;7.68;38.96;101721.19;1725453;83;21340;-77
2021/10/26 11:39:20;;;;;;;17.02;6.95;;;;;;;7.65;39.27;101720.06;1725654;83;21174;-77
2021/10/26 11:42:25;;;;;;;11.95;6.05;;;;;;;7.67;39.25;101717.60;1725341;83;21328;-81
2021/10/26 11:45:31;;;;;;;17.30;6.83;;;;;;;7.66;39.16;101710.89;1725713;83;21202;-77
2021/10/26 11:48:53;;;;;;;18.23;6.70;;;;;;;7.66;38.95;101714.98;1724413;83;21214;-76
2021/10/26 11:52:04;;;;;;;13.62;6.67;;;;;;;7.64;39.14;101708.80;1725289;83;21316;-77
2021/10/26 11:55:09;;;;;;;13.05;7.53;;;;;;;7.60;39.11;101705.45;1725352;83;21127;-78
2021/10/26 11:58:18;;;;;;;13.38;6.92;;;;;;;7.59;39.25;101697.42;1704494;84;21718;-80
2021/10/26 12:01:24;;;;;;;12.53;6.40;;;;;;;7.57;39.28;101696.16;1704440;83;21691;-77
2021/10/26 12:04:36;;;;;;;13.98;7.10;;;;;;;7.54;39.26;101692.34;1704821;84;21171;-77
2021/10/26 12:07:41;;;;;;;13.22;6.92;;;;;;;7.54;38.32;101683.31;1705263;83;21214;-77
2021/10/26 12:10:47;;;;;;;14.05;6.67;;;;;;;7.60;38.00;101689.61;1725618;83;21143;-77
2021/10/26 12:13:53;;;;;;;14.75;7.42;;;;;;;7.62;37.51;101692.59;1724886;83;21285;-80
2021/10/26 12:17:13;;;;;;;16.20;6.92;;;;;;;7.65;37.66;101683.30;1725018;83;21284;-80
2021/10/26 12:20:28;;;;;;;19.12;7.45;;;;;;;7.65;37.36;101688.25;1725642;83;21163;-77
2021/10/26 12:23:30;;;;;;;18.42;7.08;;;;;;;7.64;37.10;101684.30;1718976;83;21332;-81
2021/10/26 12:26:36;;;;;;;10.48;5.53;;;;;;;7.64;36.87;101679.71;1724240;81;21320;-77
2021/10/26 12:29:44;;;;;;;11.65;5.67;;;;;;;7.64;36.43;101678.84;1721979;81;21258;-77
2021/10/26 12:33:11;;;;;;;10.53;4.83;;;;;;;7.63;36.16;101682.07;1720386;82;21325;-77
2021/10/26 12:36:16;;;;;;;13.25;5.37;;;;;;;7.61;35.78;101684.03;1735416;82;21338;-81
2021/10/26 12:39:31;;;;;;;7.53;4.62;;;;;;;7.57;35.83;101677.09;1735572;82;21294;-77
2021/10/26 12:42:45;;;;;;;8.68;4.67;;;;;;;7.59;36.14;101671.55;1735438;82;21238;-77
2021/10/26 12:45:50;;;;;;;11.10;4.17;;;;;;;7.57;35.80;101673.52;1732435;82;21285;-77
2021/10/26 12:48:55;;;;;;;8.63;3.75;;;;;;;7.54;35.95;101675.14;1723100;82;21330;-81
2021/10/26 12:52:02;;;;;;;7.50;3.95;;;;;;;7.55;35.61;101667.34;1732613;81;21324;-80
2021/10/26 12:55:07;;;;;;;6.42;3.72;;;;;;;7.57;35.39;101667.56;1721491;82;21310;-80
2021/10/26 12:58:14;;;;;;;8.43;4.05;;;;;;;7.57;34.97;101668.06;1717410;82;21315;-77
2021/10/26 13:01:37;;;;;;;10.95;4.47;;;;;;;7.55;34.72;101674.14;1718955;82;21305;-81
2021/10/26 13:04:45;;;;;;;10.25;4.08;;;;;;;7.52;34.66;101662.12;1705331;84;21311;-81
2021/10/26 13:07:51;;;;;;;10.72;4.62;;;;;;;7.47;34.62;101658.41;1705291;84;21751;-80
2021/10/26 13:10:58;;;;;;;8.93;4.87;;;;;;;7.43;34.51;101660.54;1706067;84;21185;-81
2021/10/26 13:14:09;;;;;;;14.05;5.80;;;;;;;7.40;34.56;101658.05;1705433;84;21189;-77
2021/10/26 13:17:41;;;;;;;8.90;5.58;;;;;;;7.38;34.96;101653.20;1723943;83;21277;-77
2021/10/26 13:20:51;;;;;;;8.98;4.90;;;;;;;7.35;35.04;101653.47;1725592;83;21175;-77
2021/10/26 13:23:54;;;;;;;11.08;5.30;;;;;;;7.29;35.09;101648.53;1743989;82;21335;-81
2021/10/26 13:26:59;;;;;;;11.85;5.08;;;;;;;7.25;35.13;101647.54;1744439;82;21751;-79
2021/10/26 13:30:06;;;;;;;11.30;5.03;;;;;;;7.19;35.42;101646.14;1743883;82;21345;-80
2021/10/26 13:33:11;;;;;;;10.78;4.92;;;;;;;7.14;35.65;101648.37;1743953;82;21307;-81
2021/10/26 13:36:20;;;;;;;10.45;4.87;;;;;;;7.11;35.90;101643.19;1743018;82;21197;-77
2021/10/26 13:39:26;;;;;;;15.45;5.67;;;;;;;7.07;36.25;101642.56;1744389;82;21154;-77
2021/10/26 13:42:31;;;;;;;13.72;5.08;;;;;;;7.02;36.55;101639.34;1744400;82;21371;-80
2021/10/26 13:45:39;;;;;;;10.10;5.17;;;;;;;6.98;36.65;101642.42;1744611;82;21948;-81
2021/10/26 13:48:44;;;;;;;21.00;5.37;;;;;;;6.94;36.79;101640.92;1743422;82;21842;-77
2021/10/26 13:51:50;;;;;;;10.48;5.28;;;;;;;6.87;36.98;101637.83;1744509;82;21818;-81
2021/10/26 13:54:54;;;;;;;12.10;5.20;;;;;;;6.80;37.28;101639.28;1744611;82;21315;-77
2021/10/26 13:57:59;;;;;;;14.75;5.05;;;;;;;6.72;37.63;101631.70;1743162;82;21332;-77
2021/10/26 14:01:13;;;;;;;16.90;5.67;;;;;;;6.64;38.07;101624.16;1744244;82;21355;-77
2021/10/26 14:04:16;;;;;;;10.65;5.28;;;;;;;6.58;38.52;101626.47;1737899;81;21866;-77
2021/10/26 14:07:21;;;;;;;12.25;5.78;;;;;;;6.49;38.86;101625.33;1712268;82;21331;-77
2021/10/26 14:10:26;;;;;;;12.23;5.30;;;;;;;6.45;39.17;101627.07;1707593;84;21181;-80
2021/10/26 14:13:36;;;;;;;10.48;5.50;;;;;;;6.36;39.40;101628.14;1708173;84;21243;-80
2021/10/26 14:16:39;;;;;;;13.40;6.62;;;;;;;6.28;39.66;101621.05;1707896;84;21342;-81
2021/10/26 14:19:45;;;;;;;12.53;4.90;;;;;;;6.20;39.86;101618.54;1707757;84;21291;-81
2021/10/26 14:22:56;;;;;;;17.60;6.58;;;;;;;6.10;40.10;101617.88;1707522;84;21339;-80
2021/10/26 14:26:03;;;;;;;28.42;8.70;;;;;;;5.98;40.38;101622.89;1707539;84;21295;-80
2021/10/26 14:29:09;;;;;;;17.15;5.65;;;;;;;5.84;40.82;101621.66;1707011;84;21319;-80
2021/10/26 14:32:19;;;;;;;15.90;6.50;;;;;;;5.68;41.20;101619.20;1707956;84;21327;-77